createdAt,value
2019-06-01T00:02:04.635Z,8.53
2019-06-01T00:04:34.029Z,7.73
2019-06-01T00:07:02.703Z,7.67
2019-06-01T00:09:31.697Z,8.17
2019-06-01T00:12:00.398Z,8.00
2019-06-01T00:14:29.113Z,8.87
2019-06-01T00:16:57.844Z,7.27
2019-06-01T00:19:26.498Z,8.20
2019-06-01T00:21:55.175Z,8.77
2019-06-01T00:24:24.209Z,7.73
2019-06-01T00:26:54.990Z,8.10
2019-06-01T00:29:24.640Z,7.90
2019-06-01T00:31:53.623Z,8.57
2019-06-01T00:34:22.650Z,8.27
2019-06-01T00:36:51.967Z,8.33
2019-06-01T00:39:20.774Z,8.50
2019-06-01T00:41:50.254Z,9.23
2019-06-01T00:44:19.263Z,9.03
2019-06-01T00:46:48.756Z,9.50
2019-06-01T00:49:17.504Z,9.40
2019-06-01T00:51:47.037Z,9.30
2019-06-01T00:54:16.372Z,9.33
2019-06-01T00:56:45.559Z,9.13
2019-06-01T00:59:14.446Z,10.07
2019-06-01T01:01:43.870Z,9.80
2019-06-01T01:04:12.994Z,9.80
2019-06-01T01:06:41.687Z,9.57
2019-06-01T01:09:10.353Z,9.43
2019-06-01T01:11:39.105Z,9.80
2019-06-01T01:14:07.919Z,9.60
2019-06-01T01:16:36.572Z,8.40
2019-06-01T01:19:05.608Z,9.07
2019-06-01T01:21:34.297Z,9.43
2019-06-01T01:24:02.972Z,9.30
2019-06-01T01:26:31.739Z,9.07
2019-06-01T01:29:00.528Z,9.00
2019-06-01T01:31:29.166Z,9.23
2019-06-01T01:33:58.131Z,9.77
2019-06-01T01:36:26.819Z,9.67
2019-06-01T01:38:56.286Z,10.20
2019-06-01T01:41:25.303Z,10.17
2019-06-01T01:43:54.618Z,9.83
2019-06-01T01:46:23.444Z,10.30
2019-06-01T01:48:54.053Z,9.20
2019-06-01T01:51:24.135Z,9.23
2019-06-01T01:53:54.599Z,9.17
2019-06-01T01:56:23.743Z,8.67
2019-06-01T01:58:52.709Z,10.10
2019-06-01T02:01:23.192Z,9.83
2019-06-01T02:03:52.228Z,8.83
2019-06-01T02:06:22.764Z,8.87
2019-06-01T02:08:53.365Z,10.20
2019-06-01T02:11:22.319Z,9.70
2019-06-01T02:13:51.583Z,11.63
2019-06-01T02:16:20.413Z,11.03
2019-06-01T02:18:49.195Z,13.23
2019-06-01T02:21:18.220Z,12.07
2019-06-01T02:23:47.145Z,12.47
2019-06-01T02:26:16.576Z,12.37
2019-06-01T02:28:45.909Z,12.67
2019-06-01T02:31:14.573Z,13.20
2019-06-01T02:33:43.282Z,12.80
2019-06-01T02:36:11.940Z,14.00
2019-06-01T02:38:40.608Z,12.90
2019-06-01T02:41:11.084Z,12.27
2019-06-01T02:43:39.844Z,13.63
2019-06-01T02:46:09.175Z,11.70
2019-06-01T02:48:37.867Z,12.47
2019-06-01T02:51:06.611Z,10.83
2019-06-01T02:53:35.335Z,11.93
2019-06-01T02:56:04.413Z,12.27
2019-06-01T02:58:33.113Z,12.67
2019-06-01T03:01:38.717Z,12.37
2019-06-01T03:04:09.719Z,11.00
2019-06-01T03:06:49.845Z,10.67
2019-06-01T03:09:21.179Z,11.20
2019-06-01T03:11:52.864Z,11.07
2019-06-01T03:14:23.011Z,11.83
2019-06-01T03:16:52.451Z,11.50
2019-06-01T03:19:23.239Z,11.03
2019-06-01T03:21:53.924Z,11.20
2019-06-01T03:24:25.407Z,10.93
2019-06-01T03:26:55.446Z,11.80
2019-06-01T03:29:28.228Z,11.73
2019-06-01T03:32:17.719Z,10.80
2019-06-01T03:34:27.605Z,11.33
2019-06-01T03:36:56.753Z,12.13
2019-06-01T03:39:25.435Z,10.87
2019-06-01T03:41:54.290Z,10.03
2019-06-01T03:44:23.071Z,11.20
2019-06-01T03:46:52.109Z,10.90
2019-06-01T03:49:21.407Z,11.43
2019-06-01T03:51:50.063Z,11.67
2019-06-01T03:54:18.857Z,12.17
2019-06-01T03:56:47.583Z,12.27
2019-06-01T03:59:16.517Z,12.67
2019-06-01T04:01:47.174Z,13.60
2019-06-01T04:04:16.288Z,12.57
2019-06-01T04:06:45.235Z,12.63
2019-06-01T04:09:13.924Z,12.63
2019-06-01T04:11:42.594Z,12.77
2019-06-01T04:14:11.832Z,11.80
2019-06-01T04:16:44.127Z,11.70
2019-06-01T04:19:13.225Z,11.10
2019-06-01T04:21:41.906Z,11.40
2019-06-01T04:24:10.596Z,11.23
2019-06-01T04:26:39.268Z,11.27
2019-06-01T04:29:08.349Z,10.10
2019-06-01T04:31:38.047Z,9.53
2019-06-01T04:34:06.817Z,8.47
2019-06-01T04:36:35.878Z,8.15
2019-06-01T04:39:07.325Z,7.75
2019-06-01T04:41:36.232Z,7.58
2019-06-01T04:44:05.906Z,7.30
2019-06-01T04:46:34.778Z,7.70
2019-06-01T04:49:04.425Z,7.08
2019-06-01T04:51:33.211Z,6.97
2019-06-01T04:54:02.346Z,6.50
2019-06-01T04:56:31.013Z,7.30
2019-06-01T04:58:59.856Z,7.58
2019-06-01T05:01:28.521Z,6.75
2019-06-01T05:03:57.742Z,7.00
2019-06-01T05:06:26.402Z,7.08
2019-06-01T05:08:55.161Z,7.10
2019-06-01T05:11:24.158Z,6.58
2019-06-01T05:13:52.847Z,6.67
2019-06-01T05:16:21.536Z,7.47
2019-06-01T05:18:50.469Z,6.22
2019-06-01T05:21:19.138Z,6.25
2019-06-01T05:23:47.805Z,6.83
2019-06-01T05:26:17.133Z,6.15
2019-06-01T05:28:45.955Z,6.17
2019-06-01T05:31:24.726Z,5.75
2019-06-01T05:33:45.592Z,6.35
2019-06-01T05:36:14.564Z,6.05
2019-06-01T05:38:43.245Z,6.05
2019-06-01T05:41:13.311Z,6.17
2019-06-01T05:43:42.387Z,6.62
2019-06-01T05:46:11.830Z,6.58
2019-06-01T05:48:40.740Z,7.00
2019-06-01T05:51:12.540Z,7.05
2019-06-01T05:53:39.962Z,6.85
2019-06-01T05:56:08.626Z,8.25
2019-06-01T05:58:37.342Z,7.30
2019-06-01T06:01:06.012Z,7.87
2019-06-01T06:03:40.483Z,7.90
2019-06-01T06:06:05.098Z,7.17
2019-06-01T06:08:34.060Z,7.72
2019-06-01T06:11:02.950Z,7.42
2019-06-01T06:13:31.917Z,8.65
2019-06-01T06:16:00.597Z,8.63
2019-06-01T06:18:29.329Z,8.63
2019-06-01T06:20:57.985Z,8.25
2019-06-01T06:23:26.995Z,7.55
2019-06-01T06:25:55.674Z,7.65
2019-06-01T06:28:26.731Z,7.97
2019-06-01T06:30:55.677Z,7.97
2019-06-01T06:33:24.731Z,8.03
2019-06-01T06:35:53.400Z,8.25
2019-06-01T06:38:22.483Z,7.50
2019-06-01T06:40:51.537Z,7.50
2019-06-01T06:43:30.603Z,8.15
2019-06-01T06:45:51.729Z,7.78
2019-06-01T06:48:21.258Z,7.85
2019-06-01T06:50:50.655Z,7.78
2019-06-01T06:53:32.017Z,7.92
2019-06-01T06:55:49.732Z,7.55
2019-06-01T06:58:18.960Z,8.00
2019-06-01T07:00:48.676Z,7.85
2019-06-01T07:03:18.836Z,7.75
2019-06-01T07:05:47.786Z,7.45
2019-06-01T07:08:17.588Z,6.05
2019-06-01T07:10:46.466Z,6.87
2019-06-01T07:13:15.143Z,6.42
2019-06-01T07:15:43.807Z,5.80
2019-06-01T07:18:12.560Z,5.85
2019-06-01T07:20:42.019Z,5.60
2019-06-01T07:23:10.700Z,5.45
2019-06-01T07:25:39.422Z,5.40
2019-06-01T07:28:08.435Z,5.47
2019-06-01T07:30:49.560Z,5.10
2019-06-01T07:33:08.672Z,5.08
2019-06-01T07:35:37.327Z,4.53
2019-06-01T07:38:05.999Z,4.67
2019-06-01T07:40:34.755Z,4.75
2019-06-01T07:43:03.451Z,4.15
2019-06-01T07:45:34.955Z,4.35
2019-06-01T07:48:02.749Z,4.03
2019-06-01T07:50:32.211Z,4.15
2019-06-01T07:53:01.330Z,4.05
2019-06-01T07:55:29.990Z,4.20
2019-06-01T07:57:59.715Z,4.33
2019-06-01T08:00:29.015Z,3.50
2019-06-01T08:02:57.785Z,3.52
2019-06-01T08:05:26.543Z,3.52
2019-06-01T08:07:55.340Z,3.30
2019-06-01T08:10:24.860Z,3.45
2019-06-01T08:12:55.342Z,3.45
2019-06-01T08:15:25.539Z,3.80
2019-06-01T08:17:54.991Z,3.67
2019-06-01T08:20:24.038Z,3.72
2019-06-01T08:22:52.827Z,3.20
2019-06-01T08:25:22.371Z,4.17
2019-06-01T08:27:51.164Z,3.40
2019-06-01T08:30:20.112Z,2.95
2019-06-01T08:32:49.379Z,3.52
2019-06-01T08:35:18.139Z,3.20
2019-06-01T08:37:47.143Z,2.95
2019-06-01T08:40:16.705Z,2.58
2019-06-01T08:42:45.380Z,3.08
2019-06-01T08:45:15.127Z,2.10
2019-06-01T08:47:44.029Z,2.58
2019-06-01T08:50:13.547Z,2.60
2019-06-01T08:52:42.550Z,2.15
2019-06-01T08:55:11.715Z,2.27
2019-06-01T08:57:40.375Z,2.45
2019-06-01T09:00:10.109Z,2.40
2019-06-01T09:02:38.826Z,2.58
2019-06-01T09:05:21.303Z,2.37
2019-06-01T09:07:38.718Z,2.35
2019-06-01T09:10:08.822Z,1.82
2019-06-01T09:12:37.467Z,2.83
2019-06-01T09:15:07.443Z,2.52
2019-06-01T09:17:36.163Z,2.52
2019-06-01T09:20:05.432Z,2.58
2019-06-01T09:22:34.112Z,2.60
2019-06-01T09:25:03.228Z,2.70
2019-06-01T09:27:32.165Z,2.08
2019-06-01T09:30:00.907Z,2.25
2019-06-01T09:32:30.042Z,2.02
2019-06-01T09:34:58.838Z,2.58
2019-06-01T09:37:28.346Z,2.22
2019-06-01T09:39:57.704Z,1.67
2019-06-01T09:42:26.687Z,2.00
2019-06-01T09:44:55.751Z,2.15
2019-06-01T09:47:24.393Z,2.22
2019-06-01T09:49:53.682Z,2.05
2019-06-01T09:52:22.638Z,1.67
2019-06-01T09:54:51.864Z,1.67
2019-06-01T09:57:20.667Z,2.40
2019-06-01T09:59:49.339Z,2.67
2019-06-01T10:02:17.999Z,2.40
2019-06-01T10:04:46.966Z,1.95
2019-06-01T10:07:15.969Z,1.82
2019-06-01T10:09:44.636Z,2.37
2019-06-01T10:12:13.596Z,2.00
2019-06-01T10:14:42.543Z,2.20
2019-06-01T10:17:11.529Z,2.25
2019-06-01T10:19:40.179Z,1.90
2019-06-01T10:22:09.154Z,2.05
2019-06-01T10:24:39.329Z,1.85
2019-06-01T10:27:08.340Z,1.92
2019-06-01T10:29:37.006Z,2.50
2019-06-01T10:32:06.000Z,2.42
2019-06-01T10:34:35.619Z,1.98
2019-06-01T10:37:04.467Z,1.98
2019-06-01T10:39:33.411Z,1.90
2019-06-01T10:42:02.071Z,1.70
2019-06-01T10:44:31.578Z,2.27
2019-06-01T10:47:00.396Z,2.20
2019-06-01T10:49:29.627Z,1.70
2019-06-01T10:51:58.294Z,1.95
2019-06-01T10:54:26.964Z,2.17
2019-06-01T10:56:55.919Z,2.20
2019-06-01T10:59:24.823Z,2.12
2019-06-01T11:01:53.484Z,1.90
2019-06-01T11:04:22.507Z,1.80
2019-06-01T11:06:51.350Z,2.27
2019-06-01T11:09:20.040Z,1.77
2019-06-01T11:11:48.715Z,2.25
2019-06-01T11:14:17.427Z,1.60
2019-06-01T11:16:52.478Z,2.12
2019-06-01T11:19:16.867Z,2.02
2019-06-01T11:21:45.936Z,2.00
2019-06-01T11:24:14.871Z,2.10
2019-06-01T11:26:43.880Z,1.92
2019-06-01T11:29:12.726Z,2.22
2019-06-01T11:31:42.167Z,2.00
2019-06-01T11:34:10.939Z,1.77
2019-06-01T11:37:01.024Z,1.98
2019-06-01T11:39:10.058Z,2.70
2019-06-01T11:41:38.728Z,2.33
2019-06-01T11:44:07.399Z,1.90
2019-06-01T11:46:36.756Z,2.10
2019-06-01T11:49:05.504Z,1.80
2019-06-01T11:51:34.894Z,1.95
2019-06-01T11:54:04.100Z,1.80
2019-06-01T11:56:32.764Z,2.15
2019-06-01T11:59:01.730Z,2.02
2019-06-01T12:01:30.891Z,2.27
2019-06-01T12:03:59.601Z,2.30
2019-06-01T12:06:28.448Z,1.90
2019-06-01T12:08:57.195Z,2.05
2019-06-01T12:11:26.235Z,2.02
2019-06-01T12:13:55.225Z,2.10
2019-06-01T12:16:24.397Z,1.92
2019-06-01T12:18:53.035Z,1.92
2019-06-01T12:21:21.827Z,1.87
2019-06-01T12:23:51.099Z,1.77
2019-06-01T12:26:19.812Z,1.80
2019-06-01T12:28:48.462Z,1.77
2019-06-01T12:31:17.145Z,1.72
2019-06-01T12:33:46.416Z,2.33
2019-06-01T12:36:15.187Z,1.90
2019-06-01T12:38:53.216Z,1.85
2019-06-01T12:41:23.698Z,1.80
2019-06-01T12:44:24.114Z,1.80
2019-06-01T12:46:53.454Z,1.80
2019-06-01T12:49:22.228Z,2.10
2019-06-01T12:51:50.907Z,1.90
2019-06-01T12:54:20.399Z,1.70
2019-06-01T12:56:49.789Z,1.80
2019-06-01T12:59:18.623Z,1.72
2019-06-01T13:01:47.584Z,1.60
2019-06-01T13:04:16.255Z,1.52
2019-06-01T13:06:48.389Z,1.57
2019-06-01T13:09:15.328Z,1.60
2019-06-01T13:11:45.139Z,1.62
2019-06-01T13:14:13.961Z,1.40
2019-06-01T13:16:47.675Z,1.42
2019-06-01T13:19:13.032Z,1.60
2019-06-01T13:21:41.711Z,1.50
2019-06-01T13:24:10.384Z,1.35
2019-06-01T13:26:39.084Z,1.42
2019-06-01T13:29:07.728Z,1.50
2019-06-01T13:31:36.668Z,1.30
2019-06-01T13:34:05.647Z,1.50
2019-06-01T13:36:34.351Z,1.25
2019-06-01T13:39:04.809Z,1.62
2019-06-01T13:41:33.505Z,1.00
2019-06-01T13:44:02.533Z,1.25
2019-06-01T13:46:31.549Z,1.40
2019-06-01T13:49:00.527Z,1.42
2019-06-01T13:51:29.252Z,1.40
2019-06-01T13:53:57.919Z,1.00
2019-06-01T13:56:26.572Z,0.82
2019-06-01T13:58:55.238Z,1.10
2019-06-01T14:01:23.944Z,1.30
2019-06-01T14:03:53.896Z,1.20
2019-06-01T14:06:22.828Z,1.40
2019-06-01T14:08:51.502Z,1.02
2019-06-01T14:11:20.176Z,1.15
2019-06-01T14:13:49.876Z,1.10
2019-06-01T14:16:19.049Z,1.10
2019-06-01T14:18:49.569Z,1.00
2019-06-01T14:21:18.706Z,1.02
2019-06-01T14:23:47.724Z,1.15
2019-06-01T14:26:16.753Z,1.00
2019-06-01T14:28:46.090Z,1.35
2019-06-01T14:31:14.935Z,1.10
2019-06-01T14:33:43.619Z,0.90
2019-06-01T14:36:12.291Z,1.17
2019-06-01T14:38:47.153Z,1.12
2019-06-01T14:41:11.670Z,1.10
2019-06-01T14:43:40.736Z,1.02
2019-06-01T14:46:09.400Z,1.00
2019-06-01T14:48:38.141Z,1.00
2019-06-01T14:51:06.865Z,1.15
2019-06-01T14:53:35.568Z,1.25
2019-06-01T14:56:04.427Z,1.15
2019-06-01T14:58:33.505Z,1.00
2019-06-01T15:01:02.167Z,0.90
2019-06-01T15:03:31.131Z,1.17
2019-06-01T15:06:00.140Z,1.05
2019-06-01T15:08:28.848Z,1.15
2019-06-01T15:10:58.864Z,1.00
2019-06-01T15:13:27.650Z,1.10
2019-06-01T15:15:57.573Z,0.72
2019-06-01T15:18:26.428Z,0.72
2019-06-01T15:20:55.864Z,0.85
2019-06-01T15:23:25.536Z,0.90
2019-06-01T15:25:54.612Z,1.10
2019-06-01T15:28:23.339Z,0.80
2019-06-01T15:30:52.857Z,0.65
2019-06-01T15:33:21.822Z,0.82
2019-06-01T15:35:52.187Z,0.93
2019-06-01T15:38:21.673Z,0.90
2019-06-01T15:40:51.745Z,0.93
2019-06-01T15:43:20.632Z,1.10
2019-06-01T15:45:49.352Z,1.25
2019-06-01T15:48:18.034Z,0.78
2019-06-01T15:50:47.039Z,0.88
2019-06-01T15:53:15.936Z,0.98
2019-06-01T15:55:44.677Z,0.75
2019-06-01T15:58:13.595Z,0.80
2019-06-01T16:00:42.265Z,0.90
2019-06-01T16:03:10.937Z,0.80
2019-06-01T16:05:39.932Z,1.00
2019-06-01T16:08:08.611Z,0.93
2019-06-01T16:10:37.339Z,0.78
2019-06-01T16:13:05.986Z,0.70
2019-06-01T16:15:34.716Z,0.80
2019-06-01T16:18:04.241Z,0.82
2019-06-01T16:20:33.091Z,0.80
2019-06-01T16:23:02.474Z,1.02
2019-06-01T16:25:31.299Z,1.00
2019-06-01T16:28:00.874Z,0.80
2019-06-01T16:30:29.691Z,0.90
2019-06-01T16:32:58.728Z,0.88
2019-06-01T16:35:27.722Z,0.80
2019-06-01T16:37:56.856Z,0.90
2019-06-01T16:40:25.702Z,0.90
2019-06-01T16:42:55.314Z,1.20
2019-06-01T16:45:24.043Z,0.93
2019-06-01T16:47:52.691Z,0.75
2019-06-01T16:50:21.413Z,1.10
2019-06-01T16:52:50.056Z,1.17
2019-06-01T16:55:18.786Z,0.90
2019-06-01T16:57:47.545Z,1.00
2019-06-01T17:00:18.251Z,1.10
2019-06-01T17:02:47.473Z,1.30
2019-06-01T17:05:16.302Z,1.00
2019-06-01T17:07:44.943Z,0.93
2019-06-01T17:10:25.767Z,1.37
2019-06-01T17:12:47.026Z,0.93
2019-06-01T17:15:17.589Z,0.80
2019-06-01T17:17:46.552Z,1.10
2019-06-01T17:20:40.723Z,1.12
2019-06-01T17:23:25.200Z,1.00
2019-06-01T17:25:40.161Z,1.10
2019-06-01T17:28:09.295Z,1.10
2019-06-01T17:30:38.108Z,1.77
2019-06-01T17:33:06.764Z,0.88
2019-06-01T17:35:36.320Z,1.12
2019-06-01T17:38:07.282Z,1.40
2019-06-01T17:40:42.248Z,1.30
2019-06-01T17:43:08.904Z,1.07
2019-06-01T17:45:38.741Z,1.40
2019-06-01T17:48:21.649Z,1.15
2019-06-01T17:50:38.498Z,1.22
2019-06-01T17:53:08.714Z,1.32
2019-06-01T17:55:38.812Z,1.32
2019-06-01T17:58:09.724Z,1.20
2019-06-01T18:00:38.885Z,1.20
2019-06-01T18:03:08.158Z,1.55
2019-06-01T18:05:37.744Z,1.57
2019-06-01T18:08:07.863Z,1.72
2019-06-01T18:10:52.706Z,1.60
2019-06-01T18:13:08.863Z,1.30
2019-06-01T18:15:37.651Z,1.90
2019-06-01T18:18:06.872Z,1.60
2019-06-01T18:20:37.881Z,1.72
2019-06-01T18:23:08.225Z,2.00
2019-06-01T18:25:37.547Z,1.90
2019-06-01T18:28:07.086Z,1.90
2019-06-01T18:30:36.062Z,1.65
2019-06-01T18:33:05.406Z,1.90
2019-06-01T18:35:34.093Z,2.15
2019-06-01T18:38:03.658Z,1.82
2019-06-01T18:40:32.976Z,1.80
2019-06-01T18:43:06.037Z,1.72
2019-06-01T18:45:35.272Z,1.77
2019-06-01T18:48:04.411Z,1.80
2019-06-01T18:50:33.607Z,1.60
2019-06-01T18:53:03.767Z,2.20
2019-06-01T18:55:35.575Z,1.70
2019-06-01T18:58:03.929Z,1.90
2019-06-01T19:00:33.015Z,1.70
2019-06-01T19:03:01.703Z,1.85
2019-06-01T19:05:30.385Z,1.80
2019-06-01T19:07:59.045Z,2.25
2019-06-01T19:10:27.712Z,2.22
2019-06-01T19:12:56.420Z,1.70
2019-06-01T19:15:28.822Z,2.00
2019-06-01T19:18:04.065Z,2.30
2019-06-01T19:20:33.417Z,2.33
2019-06-01T19:23:02.233Z,2.30
2019-06-01T19:25:31.136Z,2.98
2019-06-01T19:28:00.140Z,2.55
2019-06-01T19:30:37.743Z,2.83
2019-06-01T19:33:10.584Z,2.85
2019-06-01T19:35:39.199Z,3.00
2019-06-01T19:38:09.074Z,3.12
2019-06-01T19:40:41.068Z,2.92
2019-06-01T19:43:11.555Z,2.77
2019-06-01T19:45:40.605Z,3.10
2019-06-01T19:48:10.096Z,2.62
2019-06-01T19:50:39.219Z,3.00
2019-06-01T19:53:08.692Z,3.20
2019-06-01T19:55:37.851Z,2.50
2019-06-01T19:58:06.825Z,3.15
2019-06-01T20:00:49.440Z,2.87
2019-06-01T20:03:21.905Z,2.95
2019-06-01T20:05:50.636Z,2.95
2019-06-01T20:08:22.727Z,3.02
2019-06-01T20:10:51.722Z,2.98
2019-06-01T20:13:21.450Z,2.83
2019-06-01T20:15:50.989Z,2.90
2019-06-01T20:18:19.745Z,2.83
2019-06-01T20:20:48.442Z,2.85
2019-06-01T20:23:17.523Z,3.35
2019-06-01T20:25:46.689Z,3.08
2019-06-01T20:28:35.137Z,3.47
2019-06-01T20:31:04.227Z,3.45
2019-06-01T20:33:33.027Z,3.12
2019-06-01T20:36:02.153Z,3.45
2019-06-01T20:38:31.040Z,3.20
2019-06-01T20:40:59.720Z,3.83
2019-06-01T20:43:28.419Z,3.45
2019-06-01T20:45:57.391Z,3.77
2019-06-01T20:48:26.106Z,3.33
2019-06-01T20:50:55.872Z,5.60
2019-06-01T20:53:24.562Z,4.30
2019-06-01T20:55:53.506Z,3.50
2019-06-01T20:58:25.501Z,3.83
2019-06-01T21:00:56.630Z,3.67
2019-06-01T21:03:25.377Z,3.52
2019-06-01T21:05:55.341Z,3.95
2019-06-01T21:08:25.297Z,3.85
2019-06-01T21:10:55.158Z,4.20
2019-06-01T21:13:26.464Z,4.22
2019-06-01T21:15:57.167Z,3.70
2019-06-01T21:18:28.148Z,3.77
2019-06-01T21:20:58.125Z,3.87
2019-06-01T21:23:26.938Z,4.28
2019-06-01T21:25:55.964Z,4.45
2019-06-01T21:28:25.745Z,4.20
2019-06-01T21:30:54.759Z,4.80
2019-06-01T21:33:27.094Z,3.90
2019-06-01T21:35:54.063Z,3.98
2019-06-01T21:38:23.668Z,4.42
2019-06-01T21:40:52.487Z,4.53
2019-06-01T21:43:31.571Z,3.90
2019-06-01T21:45:52.010Z,4.60
2019-06-01T21:48:21.737Z,4.10
2019-06-01T21:50:50.557Z,7.87
2019-06-01T22:09:58.808Z,4.20
2019-06-01T22:12:36.918Z,4.70
2019-06-01T22:15:28.770Z,4.37
2019-06-01T22:25:36.956Z,5.15
2019-06-01T22:28:24.905Z,4.90
2019-06-01T22:30:54.096Z,4.28
2019-06-01T22:33:23.093Z,4.40
2019-06-01T22:35:51.888Z,4.45
2019-06-01T22:38:21.626Z,4.70
2019-06-01T22:40:51.722Z,5.00
2019-06-01T22:43:36.844Z,5.37
2019-06-01T22:45:51.146Z,5.83
2019-06-01T22:48:20.455Z,5.40
2019-06-01T22:50:49.402Z,5.13
2019-06-01T22:53:18.362Z,5.55
2019-06-01T22:55:48.523Z,5.70
2019-06-01T22:58:17.179Z,6.08
2019-06-01T23:00:45.950Z,5.40
2019-06-01T23:03:14.921Z,5.43
2019-06-01T23:05:43.971Z,5.67
2019-06-01T23:08:13.354Z,5.47
2019-06-01T23:10:50.515Z,6.20
2019-06-01T23:13:19.228Z,6.08
2019-06-01T23:15:48.119Z,6.27
2019-06-01T23:18:17.209Z,5.78
2019-06-01T23:20:45.941Z,6.05
2019-06-01T23:23:15.034Z,6.20
2019-06-01T23:25:43.829Z,6.45
2019-06-01T23:28:12.492Z,6.80
2019-06-01T23:30:41.177Z,6.33
2019-06-01T23:33:10.154Z,6.87
2019-06-01T23:35:38.812Z,6.53
2019-06-01T23:38:07.827Z,6.83
2019-06-01T23:40:37.065Z,6.67
2019-06-01T23:43:05.760Z,7.20
2019-06-01T23:45:35.009Z,6.87
2019-06-01T23:48:03.898Z,7.00
2019-06-01T23:50:51.860Z,6.80
2019-06-01T23:53:20.644Z,7.00
2019-06-01T23:55:49.628Z,7.33
2019-06-01T23:59:37.167Z,7.17
